• Join FlightAware (Why Join?)
  • Login
  • US Flag 
12:49PM EDT


 

Airport Tracker/Info


-or-


 

Live Flight TrackerFlight Track Log ✈ QXE2633 ✈ 24-Aug-2013 ✈ KMSO - KPDX

Flight Track Log - Related Links

Times and Time Zones

All times are in EDT time to prevent confusion due to time zone crossing. See the QXE2633 flight status page for this flight to view local times or setup timezone preferences in your user account.

Time Position Orientation Groundspeed Altitude Reporting Facility
EDT Latitude Longitude Course Direction KTS MPH feet Rate Location/Type
03:27PM 46.8000 -114.6614 270° West  Level FlightAware Approximate
03:28PM 46.8143 -114.7798 280° West  Level FlightAware Approximate
03:29PM 46.8000 -114.8983 258° West  Level Estimated
03:30PM 46.7856 -115.0168 270° West  Level Estimated
03:31PM 46.7711 -115.1353 246° West  Level Estimated
03:32PM 46.7724 -115.2632 251° West  Level FlightAware Approximate
03:33PM 46.7457 -115.3770 251° West  Level FlightAware Approximate
03:34PM 46.7189 -115.4907 251° West  Level FlightAware Approximate
03:35PM 46.6876 -115.6019 247° West  Level FlightAware Approximate
03:36PM 46.7091 -115.7180 285° West  Level FlightAware Approximate
03:37PM 46.6937 -115.8361 256° West  Level Estimated
03:38PM 46.6758 -115.9535 258° West  Level FlightAware Approximate
03:39PM 46.6578 -116.0708 257° West  Level FlightAware Approximate
03:40PM 46.6397 -116.1880 257° West  Level FlightAware Approximate
03:41PM 46.6214 -116.3051 257° West  Level FlightAware Approximate
03:42PM 46.6031 -116.4222 257° West  Level FlightAware Approximate
03:43PM 46.5846 -116.5392 257° West  Level FlightAware Approximate
03:44PM 46.5660 -116.6561 257° West  Level FlightAware Approximate
03:45PM 46.5473 -116.7729 257° West  Level FlightAware Approximate
03:46PM 46.5285 -116.8896 257° West  Level FlightAware Approximate
03:47PM 46.5095 -117.0063 257° West  Level FlightAware Approximate
03:48PM 46.4904 -117.1228 257° West  Level FlightAware Approximate
03:49PM 46.4733 -117.2271 257° West  Level FlightAware Approximate
03:50PM 46.4560 -117.3313 257° West  Level FlightAware Approximate
03:51PM 46.4386 -117.4355 256° West  Level FlightAware Approximate
03:52PM 46.4212 -117.5396 256° West  Level FlightAware Approximate
03:53PM 46.4036 -117.6436 256° West  Level FlightAware Approximate
03:54PM 46.3860 -117.7476 256° West  Level FlightAware Approximate
03:55PM 46.3682 -117.8515 256° West  Level FlightAware Approximate
03:56PM 46.3504 -117.9553 256° West  Level FlightAware Approximate
03:57PM 46.3325 -118.0590 256° West  Level FlightAware Approximate
03:58PM 46.3122 -118.1725 254° West  Level FlightAware Approximate
03:59PM 46.2920 -118.2753 254° West  Level FlightAware Approximate
04:00PM 46.2716 -118.3780 254° West  Level FlightAware Approximate
04:01PM 46.2511 -118.4806 254° West  Level FlightAware Approximate
04:02PM 46.2306 -118.5831 254° West  Level FlightAware Approximate
04:03PM 46.2100 -118.6856 254° West  Level FlightAware Approximate
04:04PM 46.1892 -118.7880 254° West  Level FlightAware Approximate
04:05PM 46.1684 -118.8903 254° West  Level FlightAware Approximate
04:06PM 46.1475 -118.9925 254° West  Level FlightAware Approximate
04:07PM 46.1265 -119.0947 254° West  Level FlightAware Approximate
04:08PM 46.1054 -119.1968 253° West  Level FlightAware Approximate
04:09PM 46.0826 -119.3065 253° West  Level FlightAware Approximate
04:10PM 46.0597 -119.4161 253° West  Level FlightAware Approximate
04:11PM 46.0367 -119.5257 253° West  Level FlightAware Approximate
04:12PM 46.0136 -119.6351 253° West  Level FlightAware Approximate
04:13PM 45.9904 -119.7445 253° West  Level FlightAware Approximate
04:14PM 45.9671 -119.8537 253° West  Level FlightAware Approximate
04:15PM 45.9436 -119.9629 253° West  Level FlightAware Approximate
04:16PM 45.9200 -120.0719 253° West  Level FlightAware Approximate
04:17PM 45.8962 -120.1808 253° West  Level FlightAware Approximate
04:18PM 45.8724 -120.2897 253° West  Level FlightAware Approximate
04:19PM 45.8484 -120.3984 252° West  Level FlightAware Approximate
04:20PM 45.8234 -120.5066 250° West  Level FlightAware Approximate
04:21PM 45.7941 -120.6125 248° West  Level FlightAware Approximate
04:22PM 45.7684 -120.7202 253° West  Level FlightAware Approximate
04:23PM 45.7450 -120.8290 253° West  Level FlightAware Approximate
04:24PM 45.7224 -120.9381 254° West  Level FlightAware Approximate
04:25PM 45.7006 -121.0474 254° West  Level FlightAware Approximate
04:26PM 45.6779 -121.1564 251° West  Level FlightAware Approximate
04:27PM 45.6524 -121.2640 251° West  Level FlightAware Approximate
04:28PM 45.6268 -121.3716 251° West  Level FlightAware Approximate
04:29PM 45.6010 -121.4790 251° West  Level FlightAware Approximate
04:30PM 45.5762 -121.5868 252° West  Level FlightAware Approximate
04:31PM 45.5513 -121.6945 252° West  Level FlightAware Approximate
04:32PM 45.5259 -121.8009 248° West  Level FlightAware Approximate
04:33PM 45.5012 -121.9073 283° West  Level FlightAware Approximate
04:34PM 45.5183 -122.0180 277° West  Level FlightAware Approximate
04:35PM 45.5285 -122.1304 277° West  Level FlightAware Approximate
04:36PM 45.5500 -122.2353 270° West  Level FlightAware Approximate
04:37PM 45.5500 -122.3460 270° West  Level FlightAware Approximate
04:38PM 45.5667 -122.4443 270° West  Level FlightAware Approximate
04:39PM 45.5790 -122.5533 282° West  Level FlightAware Approximate
04:40PM 45.5833 -122.5833 282° West  Level FlightAware Approximate
04:41PM 45.5887 -122.5969 282° West  Level Estimated
04:42PM 45.5887 -122.5969 282° West  Level Estimated
04:43PM 45.5887 -122.5969 282° West  Level Estimated
04:44PM 45.5887 -122.5969 282° West  Level Estimated
04:45PM 45.5887 -122.5969 282° West  Level Estimated
04:46PM 45.5887 -122.5969 120° Southeast  Level Estimated
04:47PM 45.5887 -122.5969 North  Level Estimated
04:48PM 45.5887 -122.5969 North  Level Estimated